createdAt,value
2023-04-18T00:01:08.260Z,101493.38
2023-04-18T00:06:10.621Z,101488.91
2023-04-18T00:11:12.591Z,101498.66
2023-04-18T00:16:15.133Z,101496.84
2023-04-18T00:21:17.619Z,101492.41
2023-04-18T00:26:19.846Z,101494.16
2023-04-18T00:31:21.951Z,101483.44
2023-04-18T00:36:23.797Z,101492.31
2023-04-18T00:41:28.445Z,101491.41
2023-04-18T00:46:30.549Z,101498.50
2023-04-18T00:51:33.860Z,101488.69
2023-04-18T00:56:36.522Z,101488.69
2023-04-18T01:01:40.492Z,101494.00
2023-04-18T01:06:44.290Z,101485.97
2023-04-18T01:11:46.263Z,101490.38
2023-04-18T01:16:51.668Z,101492.13
2023-04-18T01:21:54.637Z,101494.78
2023-04-18T01:26:57.536Z,101500.06
2023-04-18T01:31:59.693Z,101492.97
2023-04-18T01:37:01.537Z,101496.50
2023-04-18T01:42:03.656Z,101496.47
2023-04-18T01:47:05.569Z,101500.88
2023-04-18T01:52:07.621Z,101497.31
2023-04-18T01:57:09.434Z,101497.28
2023-04-18T02:07:56.247Z,101496.38
2023-04-18T02:12:58.178Z,101505.19
2023-04-18T02:18:00.697Z,101505.16
2023-04-18T02:23:03.538Z,101495.41
2023-04-18T02:28:05.657Z,101501.59
2023-04-18T02:33:07.752Z,101487.38
2023-04-18T02:38:09.690Z,101497.09
2023-04-18T02:43:11.685Z,101486.44
2023-04-18T02:53:17.294Z,101487.28
2023-04-18T02:58:19.263Z,101490.81
2023-04-18T03:03:21.824Z,101487.28
2023-04-18T03:08:24.172Z,101481.06
2023-04-18T03:13:26.162Z,101493.44
2023-04-18T03:18:28.155Z,101492.53
2023-04-18T03:23:30.100Z,101494.28
2023-04-18T03:28:32.101Z,101494.25
2023-04-18T03:33:34.255Z,101501.34
2023-04-18T03:38:36.234Z,101496.88
2023-04-18T03:43:38.116Z,101502.19
2023-04-18T03:48:40.142Z,101495.97
2023-04-18T03:53:42.095Z,101503.03
2023-04-18T03:58:44.130Z,101502.16
2023-04-18T04:03:46.254Z,101505.66
2023-04-18T04:08:48.170Z,101506.53
2023-04-18T04:13:50.269Z,101510.97
2023-04-18T04:18:52.303Z,101509.19
2023-04-18T04:23:54.316Z,101515.38
2023-04-18T04:28:57.539Z,101519.78
2023-04-18T04:33:59.489Z,101517.16
2023-04-18T04:39:04.465Z,101526.03
2023-04-18T04:44:07.045Z,101526.06
2023-04-18T04:49:09.047Z,101529.63
2023-04-18T04:54:11.175Z,101528.72
2023-04-18T04:59:13.222Z,101534.97
2023-04-18T05:04:15.637Z,101535.00
2023-04-18T05:09:17.815Z,101538.53
2023-04-18T05:14:21.014Z,101547.41
2023-04-18T05:19:23.634Z,101545.66
2023-04-18T05:24:25.742Z,101540.34
2023-04-18T05:29:27.824Z,101549.22
2023-04-18T05:34:30.319Z,101550.13
2023-04-18T05:39:32.867Z,101549.25
2023-04-18T05:44:35.021Z,101554.56
2023-04-18T05:49:36.997Z,101554.56
2023-04-18T05:54:38.954Z,101558.13
2023-04-18T05:59:40.949Z,101551.06
2023-04-18T06:04:43.316Z,101558.19
2023-04-18T06:09:45.761Z,101552.06
2023-04-18T06:14:48.027Z,101554.78
2023-04-18T06:19:50.075Z,101553.03
2023-04-18T06:24:51.958Z,101554.91
2023-04-18T06:29:54.271Z,101559.41
2023-04-18T06:34:56.590Z,101552.38
2023-04-18T06:39:59.893Z,101565.75
2023-04-18T06:45:03.543Z,101564.94
2023-04-18T06:50:10.498Z,101566.84
2023-04-18T06:55:22.345Z,101562.50
2023-04-18T07:00:24.849Z,101558.16
2023-04-18T07:05:27.152Z,101552.94
2023-04-18T07:10:29.993Z,101564.56
2023-04-18T07:15:32.185Z,101565.50
2023-04-18T07:20:34.498Z,101557.66
2023-04-18T07:25:37.377Z,101564.81
2023-04-18T07:30:40.066Z,101577.28
2023-04-18T07:35:42.326Z,101564.03
2023-04-18T07:40:48.314Z,101572.06
2023-04-18T07:45:52.282Z,101574.78
2023-04-18T07:50:55.355Z,101573.09
2023-04-18T07:55:57.828Z,101568.72
2023-04-18T08:01:00.146Z,101566.09
2023-04-18T08:06:04.258Z,101573.22
2023-04-18T08:11:08.537Z,101575.00
2023-04-18T08:16:11.375Z,101581.25
2023-04-18T08:21:24.198Z,101573.25
2023-04-18T08:26:27.803Z,101578.59
2023-04-18T08:31:31.931Z,101570.59
2023-04-18T08:36:35.325Z,101575.03
2023-04-18T08:41:38.601Z,101582.13
2023-04-18T08:46:40.816Z,101584.78
2023-04-18T08:51:44.890Z,101586.53
2023-04-18T08:56:47.094Z,101581.16
2023-04-18T09:01:57.010Z,101582.06
2023-04-18T09:06:59.396Z,101580.22
2023-04-18T09:12:08.311Z,101574.75
2023-04-18T09:17:13.725Z,101572.75
2023-04-18T09:22:17.445Z,101558.34
2023-04-18T09:27:22.713Z,101569.84
2023-04-18T09:32:30.928Z,101577.78
2023-04-18T09:37:33.104Z,101578.59
2023-04-18T09:42:37.870Z,101583.84
2023-04-18T09:47:40.131Z,101578.44
2023-04-18T09:52:43.832Z,101582.88
2023-04-18T09:57:47.686Z,101585.50
2023-04-18T10:03:21.886Z,101572.94
2023-04-18T10:08:24.281Z,101568.44
2023-04-18T10:13:28.353Z,101570.16
2023-04-18T10:18:30.529Z,101568.34
2023-04-18T10:23:37.251Z,101564.72
2023-04-18T10:28:59.081Z,101561.91
2023-04-18T10:34:05.709Z,101564.41
2023-04-18T10:39:25.637Z,101558.13
2023-04-18T10:44:27.881Z,101562.50
2023-04-18T10:49:34.107Z,101545.50
2023-04-18T10:54:43.057Z,101546.31
2023-04-18T10:59:49.705Z,101556.09
2023-04-18T11:05:02.121Z,101550.75
2023-04-18T11:10:05.651Z,101547.19
2023-04-18T11:15:12.001Z,101540.94
2023-04-18T11:20:15.353Z,101544.44
2023-04-18T11:25:19.465Z,101539.00
2023-04-18T11:30:22.210Z,101530.91
2023-04-18T11:35:24.760Z,101532.63
2023-04-18T11:40:27.160Z,101522.75
2023-04-18T11:45:29.607Z,101525.34
2023-04-18T11:50:37.240Z,101514.53
2023-04-18T11:55:39.428Z,101509.03
2023-04-18T12:00:44.828Z,101515.16
2023-04-18T12:05:48.766Z,101501.63
2023-04-18T12:10:53.425Z,101496.06
2023-04-18T12:15:55.535Z,101496.81
2023-04-18T12:20:58.858Z,101495.03
2023-04-18T12:26:02.803Z,101496.78
2023-04-18T12:31:08.290Z,101495.03
2023-04-18T12:36:10.726Z,101485.19
2023-04-18T12:41:12.916Z,101481.66
2023-04-18T12:46:14.950Z,101472.63
2023-04-18T12:51:16.944Z,101469.75
2023-04-18T12:56:19.036Z,101482.19
2023-04-18T13:01:21.239Z,101466.03
2023-04-18T13:06:24.808Z,101458.81
2023-04-18T13:11:28.914Z,101457.03
2023-04-18T13:16:31.518Z,101449.84
2023-04-18T13:21:33.714Z,101447.97
2023-04-18T13:26:37.802Z,101440.72
2023-04-18T13:31:39.832Z,101432.63
2023-04-18T13:36:42.055Z,101434.41
2023-04-18T13:41:44.586Z,101429.03
2023-04-18T13:46:46.627Z,101439.66
2023-04-18T13:51:50.725Z,101427.97
2023-04-18T13:57:03.568Z,101423.47
2023-04-18T14:02:06.406Z,101426.16
2023-04-18T14:07:09.475Z,101422.63
2023-04-18T14:12:11.581Z,101415.44
2023-04-18T14:17:13.763Z,101413.66
2023-04-18T14:22:16.018Z,101410.13
2023-04-18T14:27:18.208Z,101395.84
2023-04-18T14:32:20.471Z,101402.13
2023-04-18T14:37:22.533Z,101396.81
2023-04-18T14:42:24.615Z,101395.06
2023-04-18T14:47:32.016Z,101394.25
2023-04-18T14:52:33.941Z,101397.84
2023-04-18T14:57:37.308Z,101380.84
2023-04-18T15:02:39.952Z,101389.81
2023-04-18T15:07:43.841Z,101388.03
2023-04-18T15:12:48.765Z,101378.22
2023-04-18T15:17:50.846Z,101380.09
2023-04-18T15:22:53.100Z,101387.38
2023-04-18T15:27:55.153Z,101388.41
2023-04-18T15:32:57.745Z,101381.31
2023-04-18T15:37:59.950Z,101382.28
2023-04-18T15:43:02.194Z,101381.44
2023-04-18T15:48:04.860Z,101385.94
2023-04-18T15:53:07.113Z,101379.72
2023-04-18T15:58:09.120Z,101382.47
2023-04-18T16:03:11.527Z,101377.22
2023-04-18T16:08:13.724Z,101384.44
2023-04-18T16:13:15.852Z,101379.13
2023-04-18T16:18:18.211Z,101370.28
2023-04-18T16:23:21.247Z,101373.03
2023-04-18T16:28:23.383Z,101368.59
2023-04-18T16:33:26.446Z,101373.22
2023-04-18T16:38:29.153Z,101364.38
2023-04-18T16:43:31.409Z,101368.97
2023-04-18T16:48:33.788Z,101370.84
2023-04-18T16:53:36.404Z,101370.94
2023-04-18T16:58:38.724Z,101367.47
2023-04-18T17:03:43.199Z,101372.09
2023-04-18T17:08:46.490Z,101370.41
2023-04-18T17:13:50.468Z,101375.88
2023-04-18T17:18:52.586Z,101372.44
2023-04-18T17:23:55.471Z,101375.22
2023-04-18T17:28:58.041Z,101375.34
2023-04-18T17:34:01.488Z,101388.84
2023-04-18T17:39:07.393Z,101381.78
2023-04-18T17:44:11.164Z,101392.56
2023-04-18T17:49:13.853Z,101379.28
2023-04-18T17:54:16.781Z,101400.78
2023-04-18T17:59:30.976Z,101400.84
2023-04-18T18:04:34.569Z,101397.41
2023-04-18T18:09:37.315Z,101408.19
2023-04-18T18:14:41.747Z,101409.13
2023-04-18T18:19:44.349Z,101397.59
2023-04-18T18:24:47.460Z,101408.34
2023-04-18T18:29:51.928Z,101408.41
2023-04-18T18:34:55.500Z,101411.16
2023-04-18T18:39:58.623Z,101406.78
2023-04-18T18:45:01.966Z,101405.06
2023-04-18T18:50:04.613Z,101406.94
2023-04-18T18:55:09.596Z,101415.06
2023-04-18T19:00:13.184Z,101401.81
2023-04-18T19:05:18.466Z,101407.22
2023-04-18T19:10:21.320Z,101400.16
2023-04-18T19:15:25.536Z,101395.75
2023-04-18T19:20:29.466Z,101392.22
2023-04-18T19:25:33.163Z,101391.38
2023-04-18T19:30:36.672Z,101388.72
2023-04-18T19:35:39.526Z,101386.97
2023-04-18T19:40:43.911Z,101382.56
2023-04-18T19:45:49.698Z,101381.69
2023-04-18T19:50:54.187Z,101372.78
2023-04-18T19:56:00.657Z,101381.72
2023-04-18T20:01:07.326Z,101378.19
2023-04-18T20:06:10.013Z,101380.94
2023-04-18T20:11:14.834Z,101366.72
2023-04-18T20:16:18.163Z,101377.44
2023-04-18T20:21:20.732Z,101367.66
2023-04-18T20:26:23.265Z,101365.91
2023-04-18T20:31:26.291Z,101356.13
2023-04-18T20:36:31.038Z,101350.81
2023-04-18T20:41:35.175Z,101348.16
2023-04-18T20:46:37.793Z,101344.63
2023-04-18T20:51:40.049Z,101341.06
2023-04-18T20:56:42.576Z,101339.31
2023-04-18T21:01:44.966Z,101340.22
2023-04-18T21:06:47.340Z,101327.78
2023-04-18T21:11:49.423Z,101325.13
2023-04-18T21:16:51.387Z,101315.34
2023-04-18T21:21:53.148Z,101309.13
2023-04-18T21:26:55.035Z,101310.03
2023-04-18T21:31:56.947Z,101297.59
2023-04-18T21:36:59.740Z,101294.94
2023-04-18T21:42:02.218Z,101293.16
2023-04-18T21:47:04.209Z,101296.78
2023-04-18T21:52:06.147Z,101301.22
2023-04-18T21:57:08.188Z,101287.91
2023-04-18T22:02:10.197Z,101286.16
2023-04-18T22:07:12.754Z,101291.47
2023-04-18T22:12:15.857Z,101285.28
2023-04-18T22:17:17.886Z,101289.69
2023-04-18T22:22:20.093Z,101280.81
2023-04-18T22:27:22.133Z,101272.81
2023-04-18T22:32:24.337Z,101268.38
2023-04-18T22:37:26.397Z,101264.84
2023-04-18T22:42:29.766Z,101261.28
2023-04-18T22:47:32.157Z,101266.63
2023-04-18T22:52:34.420Z,101257.75
2023-04-18T22:57:36.663Z,101249.75
2023-04-18T23:02:38.961Z,101241.75
2023-04-18T23:07:41.181Z,101236.47
2023-04-18T23:12:43.199Z,101234.69
2023-04-18T23:17:45.304Z,101231.13
2023-04-18T23:22:50.278Z,101229.34
2023-04-18T23:27:52.329Z,101231.13
2023-04-18T23:32:54.164Z,101226.69
2023-04-18T23:37:57.403Z,101221.34
2023-04-18T23:42:59.340Z,101215.13
2023-04-18T23:48:01.295Z,101211.56
2023-04-18T23:53:03.348Z,101200.88
2023-04-18T23:58:05.320Z,101199.09
